createdAt,value
2022-10-01T00:03:07.774Z,30.30
2022-10-01T00:07:16.802Z,32.70
2022-10-01T00:11:25.634Z,28.00
2022-10-01T00:15:34.059Z,32.60
2022-10-01T00:19:41.607Z,31.10
2022-10-01T00:23:49.624Z,31.60
2022-10-01T00:27:57.443Z,32.10
2022-10-01T00:32:05.160Z,30.50
2022-10-01T00:36:14.068Z,30.90
2022-10-01T00:40:23.996Z,31.00
2022-10-01T00:44:34.621Z,32.50
2022-10-01T00:48:47.949Z,31.00
2022-10-01T00:52:57.768Z,32.50
2022-10-01T00:57:07.516Z,32.20
2022-10-01T01:01:15.974Z,29.60
2022-10-01T01:05:23.805Z,31.40
2022-10-01T01:09:33.205Z,29.70
2022-10-01T01:13:50.327Z,29.80
2022-10-01T01:18:04.362Z,26.90
2022-10-01T01:22:14.416Z,26.00
2022-10-01T01:26:31.288Z,27.40
2022-10-01T01:30:41.382Z,25.30
2022-10-01T01:34:52.919Z,27.90
2022-10-01T01:39:04.607Z,24.50
2022-10-01T01:43:17.682Z,23.80
2022-10-01T01:47:25.971Z,20.80
2022-10-01T01:51:37.642Z,21.30
2022-10-01T01:55:48.110Z,24.90
2022-10-01T01:59:57.345Z,24.40
2022-10-01T02:04:06.845Z,26.70
2022-10-01T02:08:28.186Z,24.30
2022-10-01T02:12:43.917Z,22.30
2022-10-01T02:16:56.192Z,22.90
2022-10-01T02:21:10.111Z,25.90
2022-10-01T02:25:27.210Z,27.50
2022-10-01T02:29:36.651Z,27.90
2022-10-01T02:33:45.590Z,27.10
2022-10-01T02:37:56.551Z,27.10
2022-10-01T02:42:08.342Z,29.40
2022-10-01T02:46:22.047Z,31.70
2022-10-01T02:50:32.154Z,34.10
2022-10-01T02:54:44.043Z,29.00
2022-10-01T02:58:52.654Z,32.10
2022-10-01T03:03:00.008Z,30.40
2022-10-01T03:07:09.048Z,30.80
2022-10-01T03:11:17.359Z,32.70
2022-10-01T03:15:25.745Z,29.00
2022-10-01T03:19:33.465Z,30.90
2022-10-01T03:23:41.956Z,29.60
2022-10-01T03:27:49.797Z,27.20
2022-10-01T03:31:58.247Z,33.50
2022-10-01T03:36:06.119Z,28.90
2022-10-01T03:40:14.865Z,25.60
2022-10-01T03:44:22.367Z,25.50
2022-10-01T03:48:29.815Z,24.40
2022-10-01T03:52:37.269Z,25.40
2022-10-01T03:56:44.965Z,23.50
2022-10-01T04:00:55.429Z,22.90
2022-10-01T04:05:03.023Z,21.60
2022-10-01T04:09:10.880Z,21.80
2022-10-01T04:13:18.690Z,23.20
2022-10-01T04:17:28.513Z,21.10
2022-10-01T04:21:36.957Z,25.40
2022-10-01T04:25:45.180Z,30.30
2022-10-01T04:29:53.673Z,26.80
2022-10-01T04:34:01.118Z,26.70
2022-10-01T04:38:14.859Z,29.80
2022-10-01T04:42:23.817Z,29.80
2022-10-01T04:46:33.285Z,30.90
2022-10-01T04:50:40.819Z,28.40
2022-10-01T04:54:48.287Z,29.70
2022-10-01T04:58:56.403Z,30.70
2022-10-01T05:03:04.102Z,23.10
2022-10-01T05:07:12.073Z,17.70
2022-10-01T05:11:20.183Z,24.20
2022-10-01T05:15:27.962Z,22.00
2022-10-01T05:19:36.198Z,18.80
2022-10-01T05:23:44.541Z,18.00
2022-10-01T05:27:52.868Z,22.50
2022-10-01T05:32:01.860Z,21.50
2022-10-01T05:36:10.600Z,20.60
2022-10-01T05:40:20.065Z,22.60
2022-10-01T05:44:27.889Z,22.80
2022-10-01T05:48:37.160Z,25.30
2022-10-01T05:52:55.885Z,28.00
2022-10-01T05:57:04.158Z,27.70
2022-10-01T06:01:11.748Z,26.30
2022-10-01T06:05:19.446Z,24.80
2022-10-01T06:09:27.351Z,23.20
2022-10-01T06:13:37.184Z,24.80
2022-10-01T06:17:47.164Z,21.50
2022-10-01T06:21:54.657Z,26.50
2022-10-01T06:26:06.517Z,22.30
2022-10-01T06:30:16.423Z,23.80
2022-10-01T06:34:24.040Z,26.00
2022-10-01T06:38:32.373Z,24.70
2022-10-01T06:42:42.429Z,29.00
2022-10-01T06:46:50.873Z,29.50
2022-10-01T06:51:00.033Z,28.60
2022-10-01T06:55:13.081Z,26.10
2022-10-01T06:59:23.142Z,25.70
2022-10-01T07:03:36.929Z,26.00
2022-10-01T07:07:45.593Z,22.40
2022-10-01T07:11:53.307Z,21.80
2022-10-01T07:16:03.818Z,17.60
2022-10-01T07:20:12.537Z,17.50
2022-10-01T07:24:20.347Z,18.70
2022-10-01T07:28:28.511Z,19.40
2022-10-01T07:32:37.821Z,17.50
2022-10-01T07:36:45.343Z,15.90
2022-10-01T07:40:56.564Z,18.50
2022-10-01T07:45:06.975Z,21.00
2022-10-01T07:49:17.364Z,20.20
2022-10-01T07:53:27.768Z,17.40
2022-10-01T07:57:35.542Z,20.30
2022-10-01T08:01:43.702Z,19.20
2022-10-01T08:05:53.297Z,15.80
2022-10-01T08:10:00.884Z,16.30
2022-10-01T08:14:15.146Z,15.90
2022-10-01T08:18:23.275Z,13.80
2022-10-01T08:22:31.516Z,16.60
2022-10-01T08:26:39.045Z,16.20
2022-10-01T08:30:47.023Z,15.40
2022-10-01T08:35:00.149Z,15.50
2022-10-01T08:39:10.171Z,20.40
2022-10-01T08:43:29.715Z,19.90
2022-10-01T08:47:41.407Z,14.60
2022-10-01T08:51:52.573Z,12.50
2022-10-01T08:56:05.522Z,11.10
2022-10-01T09:00:19.564Z,13.00
2022-10-01T09:04:27.252Z,10.50
2022-10-01T09:08:45.962Z,13.50
2022-10-01T09:13:04.624Z,21.70
2022-10-01T09:17:20.431Z,17.60
2022-10-01T09:21:34.520Z,10.70
2022-10-01T09:25:43.190Z,8.30
2022-10-01T09:29:53.198Z,8.70
2022-10-01T09:34:04.150Z,8.90
2022-10-01T09:38:18.771Z,11.60
2022-10-01T09:42:29.533Z,10.20
2022-10-01T09:46:40.373Z,12.10
2022-10-01T09:50:54.743Z,11.20
2022-10-01T09:55:05.442Z,8.10
2022-10-01T09:59:18.546Z,9.30
2022-10-01T10:03:30.993Z,10.20
2022-10-01T10:07:43.197Z,8.90
2022-10-01T10:11:51.425Z,9.50
2022-10-01T10:16:00.247Z,9.20
2022-10-01T10:20:15.336Z,10.20
2022-10-01T10:24:28.098Z,8.10
2022-10-01T10:28:46.064Z,8.80
2022-10-01T10:32:54.615Z,7.50
2022-10-01T10:37:05.503Z,7.40
2022-10-01T10:41:27.036Z,8.80
2022-10-01T10:45:38.979Z,9.40
2022-10-01T10:49:50.406Z,7.50
2022-10-01T10:54:01.011Z,7.70
2022-10-01T10:58:16.106Z,9.70
2022-10-01T11:02:25.605Z,9.00
2022-10-01T11:06:33.589Z,7.30
2022-10-01T11:10:46.941Z,8.30
2022-10-01T11:15:07.223Z,8.10
2022-10-01T11:19:41.988Z,6.50
2022-10-01T11:24:10.582Z,7.30
2022-10-01T11:28:33.707Z,7.50
2022-10-01T11:32:46.226Z,6.80
2022-10-01T11:37:01.391Z,6.60
2022-10-01T11:41:19.420Z,7.00
2022-10-01T11:45:29.051Z,7.00
2022-10-01T11:49:45.414Z,6.80
2022-10-01T11:53:55.461Z,8.10
2022-10-01T11:58:23.885Z,9.10
2022-10-01T12:02:36.709Z,6.90
2022-10-01T12:06:50.621Z,7.50
2022-10-01T12:11:04.417Z,7.10
2022-10-01T12:15:18.761Z,8.40
2022-10-01T12:19:28.283Z,7.60
2022-10-01T12:23:45.754Z,6.90
2022-10-01T12:28:02.507Z,6.40
2022-10-01T12:32:18.197Z,7.20
2022-10-01T12:36:31.331Z,9.00
2022-10-01T12:40:45.656Z,8.00
2022-10-01T12:45:03.573Z,7.50
2022-10-01T12:49:22.917Z,6.80
2022-10-01T12:53:36.848Z,7.10
2022-10-01T12:57:52.458Z,8.20
2022-10-01T13:02:16.623Z,7.30
2022-10-01T13:06:35.045Z,6.30
2022-10-01T13:10:52.730Z,7.70
2022-10-01T13:15:01.363Z,7.40
2022-10-01T13:19:14.735Z,6.90
2022-10-01T13:23:33.719Z,7.00
2022-10-01T13:27:48.212Z,7.70
2022-10-01T13:31:58.376Z,6.30
2022-10-01T13:36:07.884Z,6.90
2022-10-01T13:40:28.488Z,8.60
2022-10-01T13:44:37.319Z,9.00
2022-10-01T13:48:50.794Z,6.40
2022-10-01T13:53:09.359Z,7.00
2022-10-01T13:57:31.884Z,8.70
2022-10-01T14:01:43.831Z,9.10
2022-10-01T14:05:56.956Z,11.40
2022-10-01T14:10:05.405Z,11.50
2022-10-01T14:14:38.613Z,11.90
2022-10-01T14:18:48.361Z,12.10
2022-10-01T14:23:08.865Z,11.90
2022-10-01T14:27:21.604Z,8.80
2022-10-01T14:31:40.109Z,9.00
2022-10-01T14:35:50.575Z,11.80
2022-10-01T14:40:16.903Z,11.40
2022-10-01T14:44:28.355Z,12.50
2022-10-01T14:48:38.882Z,6.70
2022-10-01T14:52:49.069Z,5.90
2022-10-01T14:56:57.045Z,7.20
2022-10-01T15:01:05.112Z,6.80
2022-10-01T15:05:23.640Z,6.60
2022-10-01T15:09:35.948Z,9.50
2022-10-01T15:13:45.453Z,8.10
2022-10-01T15:17:54.177Z,9.50
2022-10-01T15:22:03.781Z,7.00
2022-10-01T15:26:13.627Z,7.20
2022-10-01T15:30:22.275Z,10.30
2022-10-01T15:34:30.635Z,10.60
2022-10-01T15:38:39.324Z,8.60
2022-10-01T15:43:14.580Z,8.40
2022-10-01T15:47:35.405Z,9.20
2022-10-01T15:52:11.291Z,9.20
2022-10-01T15:56:21.494Z,6.90
2022-10-01T16:00:31.741Z,11.00
2022-10-01T16:04:39.516Z,12.20
2022-10-01T16:09:02.277Z,9.20
2022-10-01T16:13:30.521Z,6.40
2022-10-01T16:17:40.254Z,6.80
2022-10-01T16:22:21.355Z,6.70
2022-10-01T16:26:42.738Z,9.10
2022-10-01T16:30:52.929Z,12.80
2022-10-01T16:35:19.709Z,12.20
2022-10-01T16:39:27.493Z,10.20
2022-10-01T16:43:35.655Z,11.30
2022-10-01T16:47:43.165Z,10.00
2022-10-01T16:51:56.644Z,12.50
2022-10-01T16:56:04.842Z,11.80
2022-10-01T17:00:16.966Z,10.30
2022-10-01T17:04:30.361Z,9.30
2022-10-01T17:08:39.466Z,9.10
2022-10-01T17:12:48.151Z,9.50
2022-10-01T17:16:55.861Z,11.00
2022-10-01T17:21:05.652Z,11.20
2022-10-01T17:25:17.861Z,12.70
2022-10-01T17:29:26.846Z,14.20
2022-10-01T17:33:35.945Z,14.20
2022-10-01T17:37:45.858Z,10.20
2022-10-01T17:41:53.648Z,12.20
2022-10-01T17:46:02.486Z,10.90
2022-10-01T17:50:11.868Z,9.70
2022-10-01T17:54:20.205Z,13.30
2022-10-01T17:58:29.611Z,12.10
2022-10-01T18:02:42.147Z,10.30
2022-10-01T18:06:52.767Z,9.30
2022-10-01T18:11:09.085Z,9.10
2022-10-01T18:15:21.036Z,7.80
2022-10-01T18:24:04.229Z,8.20
2022-10-01T18:28:12.251Z,8.00
2022-10-01T18:32:23.623Z,12.70
2022-10-01T18:36:51.981Z,19.40
2022-10-01T18:41:04.119Z,11.60
2022-10-01T18:45:18.685Z,8.70
2022-10-01T18:49:52.415Z,7.90
2022-10-01T18:54:12.257Z,8.20
2022-10-01T18:58:36.516Z,8.20
2022-10-01T19:03:04.913Z,8.10
2022-10-01T19:07:23.112Z,7.90
2022-10-01T19:11:35.395Z,8.20
2022-10-01T19:15:52.187Z,8.90
2022-10-01T19:20:12.207Z,8.70
2022-10-01T19:24:42.228Z,8.80
2022-10-01T19:29:04.538Z,9.90
2022-10-01T19:33:13.687Z,13.30
2022-10-01T19:37:27.928Z,15.40
2022-10-01T19:41:41.361Z,13.50
2022-10-01T19:45:54.388Z,11.60
2022-10-01T19:50:07.261Z,9.60
2022-10-01T19:54:17.524Z,9.60
2022-10-01T19:58:24.863Z,8.60
2022-10-01T20:02:38.285Z,9.40
2022-10-01T20:06:47.825Z,10.50
2022-10-01T20:10:58.548Z,10.50
2022-10-01T20:15:11.885Z,9.70
2022-10-01T20:19:28.384Z,10.60
2022-10-01T20:23:43.664Z,11.70
2022-10-01T20:27:56.288Z,12.10
2022-10-01T20:32:08.957Z,10.60
2022-10-01T20:36:20.799Z,11.50
2022-10-01T20:40:32.946Z,9.20
2022-10-01T20:44:41.633Z,9.00
2022-10-01T20:48:53.986Z,8.80
2022-10-01T20:53:14.406Z,9.40
2022-10-01T20:57:30.711Z,9.00
2022-10-01T21:01:46.331Z,8.40
2022-10-01T21:05:55.986Z,8.60
2022-10-01T21:10:05.427Z,7.40
2022-10-01T21:14:18.409Z,6.60
2022-10-01T21:18:35.626Z,8.60
2022-10-01T21:22:52.650Z,7.60
2022-10-01T21:27:08.121Z,8.20
2022-10-01T21:31:25.477Z,7.10
2022-10-01T21:35:34.860Z,8.30
2022-10-01T21:39:48.775Z,6.80
2022-10-01T21:44:15.672Z,6.40
2022-10-01T21:48:31.765Z,7.40
2022-10-01T21:52:45.397Z,7.30
2022-10-01T21:57:02.288Z,9.00
2022-10-01T22:01:18.724Z,8.60
2022-10-01T22:05:33.518Z,9.70
2022-10-01T22:09:44.934Z,9.30
2022-10-01T22:13:55.301Z,8.80
2022-10-01T22:18:04.258Z,7.80
2022-10-01T22:22:14.593Z,8.60
2022-10-01T22:26:24.811Z,7.10
2022-10-01T22:30:36.092Z,7.10
2022-10-01T22:34:46.775Z,7.10
2022-10-01T22:38:57.607Z,6.80
2022-10-01T22:43:09.291Z,7.10
2022-10-01T22:47:58.780Z,6.60
2022-10-01T22:52:14.683Z,6.60
2022-10-01T22:56:28.192Z,6.90
2022-10-01T23:00:40.543Z,5.70
2022-10-01T23:04:57.771Z,6.00
2022-10-01T23:09:07.511Z,6.70
2022-10-01T23:13:21.120Z,7.00
2022-10-01T23:17:33.411Z,5.50
2022-10-01T23:21:47.734Z,5.70
2022-10-01T23:26:10.170Z,6.30
2022-10-01T23:30:19.078Z,4.70
2022-10-01T23:34:33.561Z,5.30
2022-10-01T23:39:02.957Z,7.20
2022-10-01T23:43:13.462Z,7.60
2022-10-01T23:47:24.155Z,4.50
2022-10-01T23:51:34.181Z,6.00
2022-10-01T23:56:06.924Z,5.70
